This is the latest recevied weather packets stored in our database for station/object KH6HHG. If no packets are shown the sender has not sent any weather packets the latest 10 day(s).
| Time | Temp. | Humidity | Pressure | Rain* | Wind** | Luminosity | Snow |
|---|---|---|---|---|---|---|---|
| 1777779099 | 22.22° C | 78% | 1010.1 hPa | 0 mm | - | - | - |
| 1777778799 | 22.22° C | 78% | 1010.1 hPa | 0 mm | - | - | - |
| 1777778499 | 22.22° C | 76% | 1010 hPa | 0 mm | - | - | - |
| 1777778199 | 22.78° C | 76% | 1010 hPa | 0 mm | - | - | - |
| 1777777899 | 22.78° C | 76% | 1010 hPa | 0 mm | - | - | - |
| 1777777599 | 22.78° C | 75% | 1010 hPa | 0 mm | - | - | - |
| 1777777299 | 22.78° C | 75% | 1009.9 hPa | 0 mm | - | - | - |
| 1777777004 | 23.33° C | 75% | 1010 hPa | 0 mm | - | - | - |
| 1777776699 | 23.33° C | 75% | 1009.9 hPa | 0 mm | - | - | - |
| 1777776399 | 23.33° C | 75% | 1009.8 hPa | 0 mm | - | - | - |
| 1777776099 | 23.33° C | 76% | 1009.8 hPa | 0 mm | - | - | - |
| 1777775799 | 23.89° C | 74% | 1009.8 hPa | 0 mm | - | - | - |
| 1777775499 | 24.44° C | 74% | 1009.7 hPa | 0 mm | - | - | - |
| 1777775199 | 23.89° C | 74% | 1009.6 hPa | 0 mm | - | - | - |
| 1777774899 | 24.44° C | 72% | 1009.6 hPa | 0 mm | - | - | - |
| 1777774599 | 24.44° C | 72% | 1009.6 hPa | 0 mm | - | - | - |
| 1777774299 | 24.44° C | 72% | 1009.5 hPa | 0 mm | - | - | - |
| 1777773999 | 24.44° C | 72% | 1009.5 hPa | 0 mm | - | - | - |
| 1777773698 | 25° C | 69% | 1009.5 hPa | 0 mm | - | - | - |
| 1777773398 | 25° C | 69% | 1009.5 hPa | 0 mm | - | - | - |
| 1777773098 | 25° C | 71% | 1009.5 hPa | 0 mm | - | - | - |
| 1777772798 | 25.56° C | 69% | 1009.4 hPa | 0 mm | - | - | - |
| 1777772498 | 25° C | 70% | 1009.5 hPa | 0 mm | - | - | - |
| 1777772198 | 24.44° C | 71% | 1009.4 hPa | 0 mm | - | - | - |
| 1777771898 | 24.44° C | 71% | 1009.4 hPa | 0 mm | - | - | - |
* Rain latest hour (hover to see other rain measurements)
** Current wind speed in m/s (hover to see current wind gust speed)